sensor_id;sensor_type;location;lat;lon;timestamp;P1;durP1;ratioP1;P2;durP2;ratioP2
11598;SDS011;5855;48.840;9.188;2023-06-26T00:00:18;8.98;;;8.07;;
11598;SDS011;5855;48.840;9.188;2023-06-26T00:02:45;8.75;;;7.85;;
11598;SDS011;5855;48.840;9.188;2023-06-26T00:05:12;9.90;;;8.15;;
11598;SDS011;5855;48.840;9.188;2023-06-26T00:07:39;9.48;;;8.40;;
11598;SDS011;5855;48.840;9.188;2023-06-26T00:10:06;9.65;;;8.65;;
11598;SDS011;5855;48.840;9.188;2023-06-26T00:12:34;9.10;;;8.15;;
11598;SDS011;5855;48.840;9.188;2023-06-26T00:15:01;8.85;;;7.93;;
11598;SDS011;5855;48.840;9.188;2023-06-26T00:17:29;9.27;;;8.38;;
11598;SDS011;5855;48.840;9.188;2023-06-26T00:19:55;8.63;;;7.78;;
11598;SDS011;5855;48.840;9.188;2023-06-26T00:22:22;9.32;;;8.27;;
11598;SDS011;5855;48.840;9.188;2023-06-26T00:24:49;9.98;;;8.40;;
11598;SDS011;5855;48.840;9.188;2023-06-26T00:27:17;9.50;;;8.52;;
11598;SDS011;5855;48.840;9.188;2023-06-26T00:29:45;10.07;;;8.10;;
11598;SDS011;5855;48.840;9.188;2023-06-26T00:32:12;9.35;;;8.32;;
11598;SDS011;5855;48.840;9.188;2023-06-26T00:34:39;9.60;;;8.38;;
11598;SDS011;5855;48.840;9.188;2023-06-26T00:37:06;10.13;;;8.20;;
11598;SDS011;5855;48.840;9.188;2023-06-26T00:39:33;10.90;;;9.05;;
11598;SDS011;5855;48.840;9.188;2023-06-26T00:42:00;9.38;;;8.38;;
11598;SDS011;5855;48.840;9.188;2023-06-26T00:44:26;10.38;;;8.82;;
11598;SDS011;5855;48.840;9.188;2023-06-26T00:46:54;10.52;;;8.27;;
11598;SDS011;5855;48.840;9.188;2023-06-26T00:49:21;10.93;;;8.40;;
11598;SDS011;5855;48.840;9.188;2023-06-26T00:51:48;10.75;;;7.88;;
11598;SDS011;5855;48.840;9.188;2023-06-26T00:54:15;9.32;;;8.40;;
11598;SDS011;5855;48.840;9.188;2023-06-26T00:56:45;8.75;;;7.88;;
11598;SDS011;5855;48.840;9.188;2023-06-26T00:59:13;9.73;;;8.48;;
11598;SDS011;5855;48.840;9.188;2023-06-26T01:01:40;8.98;;;8.07;;
11598;SDS011;5855;48.840;9.188;2023-06-26T01:04:08;9.05;;;8.15;;
11598;SDS011;5855;48.840;9.188;2023-06-26T01:06:42;9.98;;;7.93;;
11598;SDS011;5855;48.840;9.188;2023-06-26T01:09:14;10.45;;;8.65;;
11598;SDS011;5855;48.840;9.188;2023-06-26T01:11:42;11.23;;;8.40;;
11598;SDS011;5855;48.840;9.188;2023-06-26T01:14:09;10.77;;;8.48;;
11598;SDS011;5855;48.840;9.188;2023-06-26T01:16:37;11.50;;;8.20;;
11598;SDS011;5855;48.840;9.188;2023-06-26T01:19:05;11.23;;;8.60;;
11598;SDS011;5855;48.840;9.188;2023-06-26T01:21:40;10.13;;;8.88;;
11598;SDS011;5855;48.840;9.188;2023-06-26T01:24:09;10.18;;;8.50;;
11598;SDS011;5855;48.840;9.188;2023-06-26T01:26:46;9.20;;;8.30;;
11598;SDS011;5855;48.840;9.188;2023-06-26T01:29:16;9.38;;;8.30;;
11598;SDS011;5855;48.840;9.188;2023-06-26T01:31:44;9.32;;;8.40;;
11598;SDS011;5855;48.840;9.188;2023-06-26T01:34:14;10.60;;;8.43;;
11598;SDS011;5855;48.840;9.188;2023-06-26T01:36:41;9.70;;;8.70;;
11598;SDS011;5855;48.840;9.188;2023-06-26T01:39:09;10.70;;;8.38;;
11598;SDS011;5855;48.840;9.188;2023-06-26T01:41:36;9.25;;;8.13;;
11598;SDS011;5855;48.840;9.188;2023-06-26T01:44:09;9.85;;;8.85;;
11598;SDS011;5855;48.840;9.188;2023-06-26T01:46:44;9.70;;;8.00;;
11598;SDS011;5855;48.840;9.188;2023-06-26T01:49:18;9.05;;;8.15;;
11598;SDS011;5855;48.840;9.188;2023-06-26T01:51:55;9.70;;;8.70;;
11598;SDS011;5855;48.840;9.188;2023-06-26T01:54:29;9.77;;;8.50;;
11598;SDS011;5855;48.840;9.188;2023-06-26T01:56:59;10.23;;;8.90;;
11598;SDS011;5855;48.840;9.188;2023-06-26T01:59:28;12.48;;;8.77;;
11598;SDS011;5855;48.840;9.188;2023-06-26T02:02:00;10.13;;;8.85;;
11598;SDS011;5855;48.840;9.188;2023-06-26T02:04:27;9.35;;;8.45;;
11598;SDS011;5855;48.840;9.188;2023-06-26T02:06:54;10.20;;;8.75;;
11598;SDS011;5855;48.840;9.188;2023-06-26T02:09:21;9.50;;;8.60;;
11598;SDS011;5855;48.840;9.188;2023-06-26T02:11:47;9.50;;;8.48;;
11598;SDS011;5855;48.840;9.188;2023-06-26T02:14:14;9.75;;;8.80;;
11598;SDS011;5855;48.840;9.188;2023-06-26T02:16:42;9.23;;;8.32;;
11598;SDS011;5855;48.840;9.188;2023-06-26T02:19:09;9.00;;;8.10;;
11598;SDS011;5855;48.840;9.188;2023-06-26T02:21:36;8.93;;;7.97;;
11598;SDS011;5855;48.840;9.188;2023-06-26T02:24:03;10.18;;;8.63;;
11598;SDS011;5855;48.840;9.188;2023-06-26T02:26:31;10.63;;;8.95;;
11598;SDS011;5855;48.840;9.188;2023-06-26T02:28:58;9.60;;;8.52;;
11598;SDS011;5855;48.840;9.188;2023-06-26T02:31:24;9.65;;;8.55;;
11598;SDS011;5855;48.840;9.188;2023-06-26T02:33:52;9.10;;;8.20;;
11598;SDS011;5855;48.840;9.188;2023-06-26T02:36:19;10.75;;;8.55;;
11598;SDS011;5855;48.840;9.188;2023-06-26T02:38:46;8.82;;;7.93;;
11598;SDS011;5855;48.840;9.188;2023-06-26T02:41:13;8.73;;;7.80;;
11598;SDS011;5855;48.840;9.188;2023-06-26T02:43:40;9.95;;;8.65;;
11598;SDS011;5855;48.840;9.188;2023-06-26T02:46:07;12.02;;;8.57;;
11598;SDS011;5855;48.840;9.188;2023-06-26T02:48:34;9.48;;;8.48;;
11598;SDS011;5855;48.840;9.188;2023-06-26T02:51:02;10.27;;;8.60;;
11598;SDS011;5855;48.840;9.188;2023-06-26T02:53:29;10.07;;;8.82;;
11598;SDS011;5855;48.840;9.188;2023-06-26T02:55:57;9.73;;;8.40;;
11598;SDS011;5855;48.840;9.188;2023-06-26T02:58:23;9.98;;;8.85;;
11598;SDS011;5855;48.840;9.188;2023-06-26T03:00:50;9.38;;;8.38;;
11598;SDS011;5855;48.840;9.188;2023-06-26T03:03:18;9.43;;;8.43;;
11598;SDS011;5855;48.840;9.188;2023-06-26T03:05:45;9.88;;;8.13;;
11598;SDS011;5855;48.840;9.188;2023-06-26T03:08:13;9.27;;;8.38;;
11598;SDS011;5855;48.840;9.188;2023-06-26T03:10:41;9.07;;;8.18;;
11598;SDS011;5855;48.840;9.188;2023-06-26T03:13:08;10.85;;;8.05;;
11598;SDS011;5855;48.840;9.188;2023-06-26T03:15:35;8.93;;;8.00;;
11598;SDS011;5855;48.840;9.188;2023-06-26T03:18:01;9.15;;;8.20;;
11598;SDS011;5855;48.840;9.188;2023-06-26T03:20:28;9.18;;;8.27;;
11598;SDS011;5855;48.840;9.188;2023-06-26T03:22:55;9.35;;;8.25;;
11598;SDS011;5855;48.840;9.188;2023-06-26T03:25:25;9.48;;;7.95;;
11598;SDS011;5855;48.840;9.188;2023-06-26T03:27:52;9.15;;;8.20;;
11598;SDS011;5855;48.840;9.188;2023-06-26T03:30:19;9.32;;;8.35;;
11598;SDS011;5855;48.840;9.188;2023-06-26T03:32:45;9.07;;;8.18;;
11598;SDS011;5855;48.840;9.188;2023-06-26T03:35:12;8.82;;;8.00;;
11598;SDS011;5855;48.840;9.188;2023-06-26T03:37:39;9.27;;;8.18;;
11598;SDS011;5855;48.840;9.188;2023-06-26T03:40:07;8.55;;;7.75;;
11598;SDS011;5855;48.840;9.188;2023-06-26T03:42:36;9.15;;;8.02;;
11598;SDS011;5855;48.840;9.188;2023-06-26T03:45:03;9.30;;;8.40;;
11598;SDS011;5855;48.840;9.188;2023-06-26T03:47:30;9.15;;;8.25;;
11598;SDS011;5855;48.840;9.188;2023-06-26T03:49:57;10.98;;;7.80;;
11598;SDS011;5855;48.840;9.188;2023-06-26T03:52:24;10.13;;;7.80;;
11598;SDS011;5855;48.840;9.188;2023-06-26T03:54:51;8.50;;;7.55;;
11598;SDS011;5855;48.840;9.188;2023-06-26T03:57:18;9.68;;;7.85;;
11598;SDS011;5855;48.840;9.188;2023-06-26T03:59:46;8.68;;;7.80;;
11598;SDS011;5855;48.840;9.188;2023-06-26T04:02:13;8.40;;;7.60;;
11598;SDS011;5855;48.840;9.188;2023-06-26T04:04:40;8.70;;;7.80;;
11598;SDS011;5855;48.840;9.188;2023-06-26T04:07:07;9.18;;;8.20;;
11598;SDS011;5855;48.840;9.188;2023-06-26T04:09:33;9.90;;;8.30;;
11598;SDS011;5855;48.840;9.188;2023-06-26T04:12:00;8.38;;;7.43;;
11598;SDS011;5855;48.840;9.188;2023-06-26T04:14:27;8.93;;;7.75;;
11598;SDS011;5855;48.840;9.188;2023-06-26T04:16:56;10.30;;;7.90;;
11598;SDS011;5855;48.840;9.188;2023-06-26T04:19:25;9.05;;;8.07;;
11598;SDS011;5855;48.840;9.188;2023-06-26T04:21:52;9.32;;;8.07;;
11598;SDS011;5855;48.840;9.188;2023-06-26T04:24:18;9.55;;;8.10;;
11598;SDS011;5855;48.840;9.188;2023-06-26T04:26:45;8.77;;;7.88;;
11598;SDS011;5855;48.840;9.188;2023-06-26T04:29:12;12.27;;;7.85;;
11598;SDS011;5855;48.840;9.188;2023-06-26T04:31:39;8.95;;;8.05;;
11598;SDS011;5855;48.840;9.188;2023-06-26T04:34:07;8.43;;;7.60;;
11598;SDS011;5855;48.840;9.188;2023-06-26T04:36:34;9.35;;;8.40;;
11598;SDS011;5855;48.840;9.188;2023-06-26T04:39:03;9.38;;;8.32;;
11598;SDS011;5855;48.840;9.188;2023-06-26T04:41:31;9.05;;;8.05;;
11598;SDS011;5855;48.840;9.188;2023-06-26T04:43:58;12.45;;;8.82;;
11598;SDS011;5855;48.840;9.188;2023-06-26T04:46:24;9.80;;;8.80;;
11598;SDS011;5855;48.840;9.188;2023-06-26T04:48:52;9.93;;;8.57;;
11598;SDS011;5855;48.840;9.188;2023-06-26T04:51:21;11.80;;;8.20;;
11598;SDS011;5855;48.840;9.188;2023-06-26T04:53:47;9.98;;;8.05;;
11598;SDS011;5855;48.840;9.188;2023-06-26T04:56:14;10.18;;;8.50;;
11598;SDS011;5855;48.840;9.188;2023-06-26T04:58:41;10.13;;;7.93;;
11598;SDS011;5855;48.840;9.188;2023-06-26T05:01:08;8.95;;;8.05;;
11598;SDS011;5855;48.840;9.188;2023-06-26T05:03:35;11.65;;;8.20;;
11598;SDS011;5855;48.840;9.188;2023-06-26T05:06:02;9.57;;;8.57;;
11598;SDS011;5855;48.840;9.188;2023-06-26T05:08:30;10.48;;;8.73;;
11598;SDS011;5855;48.840;9.188;2023-06-26T05:10:57;11.30;;;8.50;;
11598;SDS011;5855;48.840;9.188;2023-06-26T05:13:24;10.27;;;8.15;;
11598;SDS011;5855;48.840;9.188;2023-06-26T05:15:51;11.20;;;8.52;;
11598;SDS011;5855;48.840;9.188;2023-06-26T05:18:18;9.15;;;8.15;;
11598;SDS011;5855;48.840;9.188;2023-06-26T05:20:45;12.65;;;8.05;;
11598;SDS011;5855;48.840;9.188;2023-06-26T05:23:13;10.23;;;8.20;;
11598;SDS011;5855;48.840;9.188;2023-06-26T05:25:44;9.20;;;7.93;;
11598;SDS011;5855;48.840;9.188;2023-06-26T05:28:11;9.85;;;8.05;;
11598;SDS011;5855;48.840;9.188;2023-06-26T05:30:40;10.70;;;8.00;;
11598;SDS011;5855;48.840;9.188;2023-06-26T05:33:08;9.43;;;8.45;;
11598;SDS011;5855;48.840;9.188;2023-06-26T05:35:37;9.27;;;8.27;;
11598;SDS011;5855;48.840;9.188;2023-06-26T05:38:05;11.23;;;8.77;;
11598;SDS011;5855;48.840;9.188;2023-06-26T05:40:33;9.40;;;7.72;;
11598;SDS011;5855;48.840;9.188;2023-06-26T05:43:02;9.32;;;7.95;;
11598;SDS011;5855;48.840;9.188;2023-06-26T05:45:29;10.18;;;7.93;;
11598;SDS011;5855;48.840;9.188;2023-06-26T05:47:56;14.32;;;8.38;;
11598;SDS011;5855;48.840;9.188;2023-06-26T05:50:23;11.00;;;7.90;;
11598;SDS011;5855;48.840;9.188;2023-06-26T05:52:51;10.20;;;8.07;;
11598;SDS011;5855;48.840;9.188;2023-06-26T05:55:19;10.93;;;7.72;;
11598;SDS011;5855;48.840;9.188;2023-06-26T05:57:46;9.50;;;7.63;;
11598;SDS011;5855;48.840;9.188;2023-06-26T06:00:18;15.60;;;8.45;;
11598;SDS011;5855;48.840;9.188;2023-06-26T06:02:45;9.75;;;7.50;;
11598;SDS011;5855;48.840;9.188;2023-06-26T06:05:12;8.57;;;7.68;;
11598;SDS011;5855;48.840;9.188;2023-06-26T06:07:40;8.70;;;7.75;;
11598;SDS011;5855;48.840;9.188;2023-06-26T06:10:07;12.30;;;7.85;;
11598;SDS011;5855;48.840;9.188;2023-06-26T06:12:35;8.63;;;7.65;;
11598;SDS011;5855;48.840;9.188;2023-06-26T06:15:02;11.25;;;7.75;;
11598;SDS011;5855;48.840;9.188;2023-06-26T06:17:30;10.50;;;7.70;;
11598;SDS011;5855;48.840;9.188;2023-06-26T06:19:57;9.90;;;7.35;;
11598;SDS011;5855;48.840;9.188;2023-06-26T06:22:24;9.23;;;7.35;;
11598;SDS011;5855;48.840;9.188;2023-06-26T06:24:51;10.73;;;7.45;;
11598;SDS011;5855;48.840;9.188;2023-06-26T06:27:18;9.30;;;7.45;;
11598;SDS011;5855;48.840;9.188;2023-06-26T06:29:45;8.93;;;7.00;;
11598;SDS011;5855;48.840;9.188;2023-06-26T06:32:15;10.75;;;7.85;;
11598;SDS011;5855;48.840;9.188;2023-06-26T06:34:46;9.38;;;6.75;;
11598;SDS011;5855;48.840;9.188;2023-06-26T06:37:13;10.00;;;7.90;;
11598;SDS011;5855;48.840;9.188;2023-06-26T06:39:40;9.20;;;7.65;;
11598;SDS011;5855;48.840;9.188;2023-06-26T06:42:07;9.82;;;7.55;;
11598;SDS011;5855;48.840;9.188;2023-06-26T06:44:35;10.95;;;6.80;;
11598;SDS011;5855;48.840;9.188;2023-06-26T06:47:03;16.38;;;7.55;;
11598;SDS011;5855;48.840;9.188;2023-06-26T06:49:32;7.55;;;6.65;;
11598;SDS011;5855;48.840;9.188;2023-06-26T06:52:00;8.10;;;6.80;;
11598;SDS011;5855;48.840;9.188;2023-06-26T06:54:27;8.68;;;6.80;;
11598;SDS011;5855;48.840;9.188;2023-06-26T06:56:54;8.63;;;6.90;;
11598;SDS011;5855;48.840;9.188;2023-06-26T06:59:21;8.02;;;6.82;;
11598;SDS011;5855;48.840;9.188;2023-06-26T07:01:48;10.00;;;7.47;;
11598;SDS011;5855;48.840;9.188;2023-06-26T07:04:14;7.90;;;7.00;;
11598;SDS011;5855;48.840;9.188;2023-06-26T07:06:41;8.88;;;6.82;;
11598;SDS011;5855;48.840;9.188;2023-06-26T07:09:10;7.07;;;6.10;;
11598;SDS011;5855;48.840;9.188;2023-06-26T07:11:37;10.75;;;7.00;;
11598;SDS011;5855;48.840;9.188;2023-06-26T07:14:06;11.20;;;7.00;;
11598;SDS011;5855;48.840;9.188;2023-06-26T07:16:33;8.15;;;6.30;;
11598;SDS011;5855;48.840;9.188;2023-06-26T07:19:00;7.28;;;6.57;;
11598;SDS011;5855;48.840;9.188;2023-06-26T07:21:27;10.30;;;7.13;;
11598;SDS011;5855;48.840;9.188;2023-06-26T07:23:54;7.90;;;6.70;;
11598;SDS011;5855;48.840;9.188;2023-06-26T07:26:22;8.32;;;6.53;;
11598;SDS011;5855;48.840;9.188;2023-06-26T07:28:49;6.90;;;6.22;;
11598;SDS011;5855;48.840;9.188;2023-06-26T07:31:16;6.63;;;6.00;;
11598;SDS011;5855;48.840;9.188;2023-06-26T07:33:45;7.60;;;6.60;;
11598;SDS011;5855;48.840;9.188;2023-06-26T07:36:12;6.60;;;5.93;;
11598;SDS011;5855;48.840;9.188;2023-06-26T07:38:39;6.93;;;6.22;;
11598;SDS011;5855;48.840;9.188;2023-06-26T07:41:05;6.85;;;6.18;;
11598;SDS011;5855;48.840;9.188;2023-06-26T07:43:34;8.20;;;6.80;;
11598;SDS011;5855;48.840;9.188;2023-06-26T07:46:01;6.93;;;6.22;;
11598;SDS011;5855;48.840;9.188;2023-06-26T07:48:27;6.90;;;6.20;;
11598;SDS011;5855;48.840;9.188;2023-06-26T07:50:54;8.02;;;6.22;;
11598;SDS011;5855;48.840;9.188;2023-06-26T07:53:21;7.97;;;6.10;;
11598;SDS011;5855;48.840;9.188;2023-06-26T07:55:48;8.63;;;6.13;;
11598;SDS011;5855;48.840;9.188;2023-06-26T07:58:15;6.05;;;5.43;;
11598;SDS011;5855;48.840;9.188;2023-06-26T08:00:44;6.50;;;5.80;;
11598;SDS011;5855;48.840;9.188;2023-06-26T08:03:11;8.02;;;6.10;;
11598;SDS011;5855;48.840;9.188;2023-06-26T08:05:38;6.40;;;5.80;;
11598;SDS011;5855;48.840;9.188;2023-06-26T08:08:05;7.68;;;5.78;;
11598;SDS011;5855;48.840;9.188;2023-06-26T08:10:32;6.65;;;5.28;;
11598;SDS011;5855;48.840;9.188;2023-06-26T08:12:59;7.00;;;5.50;;
11598;SDS011;5855;48.840;9.188;2023-06-26T08:15:26;5.80;;;5.25;;
11598;SDS011;5855;48.840;9.188;2023-06-26T08:17:54;6.28;;;4.95;;
11598;SDS011;5855;48.840;9.188;2023-06-26T08:20:21;8.02;;;5.22;;
11598;SDS011;5855;48.840;9.188;2023-06-26T08:22:48;5.88;;;5.30;;
11598;SDS011;5855;48.840;9.188;2023-06-26T08:25:16;8.77;;;5.07;;
11598;SDS011;5855;48.840;9.188;2023-06-26T08:27:43;5.55;;;4.47;;
11598;SDS011;5855;48.840;9.188;2023-06-26T08:30:10;6.53;;;4.43;;
11598;SDS011;5855;48.840;9.188;2023-06-26T08:32:38;5.90;;;4.55;;
11598;SDS011;5855;48.840;9.188;2023-06-26T08:35:08;8.32;;;4.68;;
11598;SDS011;5855;48.840;9.188;2023-06-26T08:37:35;9.07;;;4.60;;
11598;SDS011;5855;48.840;9.188;2023-06-26T08:40:02;7.65;;;4.38;;
11598;SDS011;5855;48.840;9.188;2023-06-26T08:42:30;5.15;;;4.40;;
11598;SDS011;5855;48.840;9.188;2023-06-26T08:44:57;7.70;;;4.90;;
11598;SDS011;5855;48.840;9.188;2023-06-26T08:47:23;5.32;;;4.45;;
11598;SDS011;5855;48.840;9.188;2023-06-26T08:49:53;4.88;;;3.90;;
11598;SDS011;5855;48.840;9.188;2023-06-26T08:52:35;7.15;;;4.32;;
11598;SDS011;5855;48.840;9.188;2023-06-26T08:55:09;6.07;;;4.55;;
11598;SDS011;5855;48.840;9.188;2023-06-26T08:57:36;7.53;;;4.00;;
11598;SDS011;5855;48.840;9.188;2023-06-26T09:00:04;5.30;;;4.60;;
11598;SDS011;5855;48.840;9.188;2023-06-26T09:02:36;4.70;;;4.30;;
11598;SDS011;5855;48.840;9.188;2023-06-26T09:05:04;6.57;;;4.22;;
11598;SDS011;5855;48.840;9.188;2023-06-26T09:07:31;4.45;;;4.15;;
11598;SDS011;5855;48.840;9.188;2023-06-26T09:10:00;8.10;;;4.32;;
11598;SDS011;5855;48.840;9.188;2023-06-26T09:12:27;8.32;;;4.28;;
11598;SDS011;5855;48.840;9.188;2023-06-26T09:14:54;4.72;;;4.22;;
11598;SDS011;5855;48.840;9.188;2023-06-26T09:17:24;4.43;;;4.03;;
11598;SDS011;5855;48.840;9.188;2023-06-26T09:19:52;4.70;;;4.05;;
11598;SDS011;5855;48.840;9.188;2023-06-26T09:22:19;7.18;;;4.38;;
11598;SDS011;5855;48.840;9.188;2023-06-26T09:24:46;7.22;;;3.83;;
11598;SDS011;5855;48.840;9.188;2023-06-26T09:27:15;6.60;;;4.25;;
11598;SDS011;5855;48.840;9.188;2023-06-26T09:29:42;4.25;;;3.88;;
11598;SDS011;5855;48.840;9.188;2023-06-26T09:32:12;4.78;;;3.60;;
11598;SDS011;5855;48.840;9.188;2023-06-26T09:34:40;3.78;;;3.47;;
11598;SDS011;5855;48.840;9.188;2023-06-26T09:37:11;4.00;;;3.58;;
11598;SDS011;5855;48.840;9.188;2023-06-26T09:39:38;7.00;;;3.83;;
11598;SDS011;5855;48.840;9.188;2023-06-26T09:42:05;4.25;;;3.92;;
11598;SDS011;5855;48.840;9.188;2023-06-26T09:44:34;4.95;;;3.88;;
11598;SDS011;5855;48.840;9.188;2023-06-26T09:47:02;6.50;;;3.78;;
11598;SDS011;5855;48.840;9.188;2023-06-26T09:49:30;6.85;;;3.75;;
11598;SDS011;5855;48.840;9.188;2023-06-26T09:51:57;5.53;;;3.97;;
11598;SDS011;5855;48.840;9.188;2023-06-26T09:54:27;5.15;;;3.88;;
11598;SDS011;5855;48.840;9.188;2023-06-26T09:56:55;9.48;;;4.20;;
11598;SDS011;5855;48.840;9.188;2023-06-26T09:59:22;7.68;;;3.95;;
11598;SDS011;5855;48.840;9.188;2023-06-26T10:01:58;7.30;;;4.00;;
11598;SDS011;5855;48.840;9.188;2023-06-26T10:04:25;10.73;;;4.07;;
11598;SDS011;5855;48.840;9.188;2023-06-26T10:06:53;5.22;;;3.80;;
11598;SDS011;5855;48.840;9.188;2023-06-26T10:09:22;5.45;;;4.32;;
11598;SDS011;5855;48.840;9.188;2023-06-26T10:11:51;5.20;;;4.47;;
11598;SDS011;5855;48.840;9.188;2023-06-26T10:14:22;6.45;;;4.47;;
11598;SDS011;5855;48.840;9.188;2023-06-26T10:16:56;7.95;;;4.20;;
11598;SDS011;5855;48.840;9.188;2023-06-26T10:19:25;5.47;;;4.55;;
11598;SDS011;5855;48.840;9.188;2023-06-26T10:21:54;6.55;;;4.35;;
11598;SDS011;5855;48.840;9.188;2023-06-26T10:24:22;6.72;;;4.50;;
11598;SDS011;5855;48.840;9.188;2023-06-26T10:26:52;5.05;;;4.47;;
11598;SDS011;5855;48.840;9.188;2023-06-26T10:29:23;5.00;;;4.50;;
11598;SDS011;5855;48.840;9.188;2023-06-26T10:31:52;6.97;;;4.47;;
11598;SDS011;5855;48.840;9.188;2023-06-26T10:34:27;6.60;;;4.95;;
11598;SDS011;5855;48.840;9.188;2023-06-26T10:37:00;6.47;;;4.72;;
11598;SDS011;5855;48.840;9.188;2023-06-26T10:39:32;5.07;;;4.20;;
11598;SDS011;5855;48.840;9.188;2023-06-26T10:42:13;5.03;;;4.50;;
11598;SDS011;5855;48.840;9.188;2023-06-26T10:44:45;7.18;;;4.63;;
11598;SDS011;5855;48.840;9.188;2023-06-26T10:50:20;7.78;;;4.70;;
11598;SDS011;5855;48.840;9.188;2023-06-26T10:53:08;6.95;;;4.68;;
11598;SDS011;5855;48.840;9.188;2023-06-26T10:55:41;6.22;;;4.57;;
11598;SDS011;5855;48.840;9.188;2023-06-26T11:00:53;8.20;;;5.03;;
11598;SDS011;5855;48.840;9.188;2023-06-26T11:03:41;8.70;;;4.68;;
11598;SDS011;5855;48.840;9.188;2023-06-26T11:06:12;5.90;;;4.72;;
11598;SDS011;5855;48.840;9.188;2023-06-26T11:08:46;5.25;;;4.85;;
11598;SDS011;5855;48.840;9.188;2023-06-26T11:11:14;6.50;;;5.10;;
11598;SDS011;5855;48.840;9.188;2023-06-26T11:13:41;8.75;;;5.03;;
11598;SDS011;5855;48.840;9.188;2023-06-26T11:16:08;9.60;;;4.97;;
11598;SDS011;5855;48.840;9.188;2023-06-26T11:18:37;7.70;;;4.57;;
11598;SDS011;5855;48.840;9.188;2023-06-26T11:21:05;5.78;;;4.85;;
11598;SDS011;5855;48.840;9.188;2023-06-26T11:23:34;5.97;;;4.90;;
11598;SDS011;5855;48.840;9.188;2023-06-26T11:26:12;7.57;;;4.70;;
11598;SDS011;5855;48.840;9.188;2023-06-26T11:28:45;8.18;;;4.95;;
11598;SDS011;5855;48.840;9.188;2023-06-26T11:33:56;6.82;;;4.45;;
11598;SDS011;5855;48.840;9.188;2023-06-26T11:36:27;7.00;;;4.68;;
11598;SDS011;5855;48.840;9.188;2023-06-26T11:38:55;5.75;;;4.10;;
11598;SDS011;5855;48.840;9.188;2023-06-26T11:41:23;8.23;;;4.45;;
11598;SDS011;5855;48.840;9.188;2023-06-26T11:43:50;5.88;;;3.88;;
11598;SDS011;5855;48.840;9.188;2023-06-26T11:46:21;5.03;;;4.53;;
11598;SDS011;5855;48.840;9.188;2023-06-26T11:48:49;5.88;;;4.03;;
11598;SDS011;5855;48.840;9.188;2023-06-26T11:51:15;7.00;;;4.43;;
11598;SDS011;5855;48.840;9.188;2023-06-26T11:53:46;7.07;;;4.72;;
11598;SDS011;5855;48.840;9.188;2023-06-26T11:56:16;9.45;;;4.90;;
11598;SDS011;5855;48.840;9.188;2023-06-26T11:58:56;10.18;;;4.22;;
11598;SDS011;5855;48.840;9.188;2023-06-26T12:01:25;6.10;;;4.45;;
11598;SDS011;5855;48.840;9.188;2023-06-26T12:03:57;5.13;;;4.55;;
11598;SDS011;5855;48.840;9.188;2023-06-26T12:06:26;6.53;;;4.78;;
11598;SDS011;5855;48.840;9.188;2023-06-26T12:08:56;5.32;;;4.72;;
11598;SDS011;5855;48.840;9.188;2023-06-26T12:11:26;7.60;;;4.78;;
11598;SDS011;5855;48.840;9.188;2023-06-26T12:13:55;6.85;;;4.70;;
11598;SDS011;5855;48.840;9.188;2023-06-26T12:16:22;6.38;;;4.57;;
11598;SDS011;5855;48.840;9.188;2023-06-26T12:18:50;6.20;;;4.45;;
11598;SDS011;5855;48.840;9.188;2023-06-26T12:21:43;8.00;;;4.15;;
11598;SDS011;5855;48.840;9.188;2023-06-26T12:24:13;5.30;;;4.80;;
11598;SDS011;5855;48.840;9.188;2023-06-26T12:26:43;7.07;;;4.85;;
11598;SDS011;5855;48.840;9.188;2023-06-26T12:29:13;5.85;;;4.60;;
11598;SDS011;5855;48.840;9.188;2023-06-26T12:31:42;5.68;;;4.47;;
11598;SDS011;5855;48.840;9.188;2023-06-26T12:34:11;6.85;;;4.50;;
11598;SDS011;5855;48.840;9.188;2023-06-26T12:36:43;5.35;;;4.45;;
11598;SDS011;5855;48.840;9.188;2023-06-26T12:39:10;9.27;;;5.05;;
11598;SDS011;5855;48.840;9.188;2023-06-26T12:41:53;5.05;;;4.40;;
11598;SDS011;5855;48.840;9.188;2023-06-26T12:44:22;4.65;;;4.25;;
11598;SDS011;5855;48.840;9.188;2023-06-26T12:46:53;9.77;;;4.32;;
11598;SDS011;5855;48.840;9.188;2023-06-26T12:49:28;5.40;;;4.35;;
11598;SDS011;5855;48.840;9.188;2023-06-26T12:51:56;5.70;;;4.28;;
11598;SDS011;5855;48.840;9.188;2023-06-26T12:54:23;5.28;;;3.88;;
11598;SDS011;5855;48.840;9.188;2023-06-26T12:56:50;4.68;;;4.18;;
11598;SDS011;5855;48.840;9.188;2023-06-26T12:59:18;7.15;;;4.30;;
11598;SDS011;5855;48.840;9.188;2023-06-26T13:01:49;5.05;;;3.90;;
11598;SDS011;5855;48.840;9.188;2023-06-26T13:04:16;9.18;;;3.70;;
11598;SDS011;5855;48.840;9.188;2023-06-26T13:06:43;9.77;;;4.30;;
11598;SDS011;5855;48.840;9.188;2023-06-26T13:09:10;7.50;;;4.40;;
11598;SDS011;5855;48.840;9.188;2023-06-26T13:11:37;4.32;;;3.75;;
11598;SDS011;5855;48.840;9.188;2023-06-26T13:14:08;4.65;;;3.70;;
11598;SDS011;5855;48.840;9.188;2023-06-26T13:16:35;6.13;;;3.65;;
11598;SDS011;5855;48.840;9.188;2023-06-26T13:19:02;6.85;;;3.75;;
11598;SDS011;5855;48.840;9.188;2023-06-26T13:21:29;4.50;;;4.10;;
11598;SDS011;5855;48.840;9.188;2023-06-26T13:23:56;10.20;;;4.15;;
11598;SDS011;5855;48.840;9.188;2023-06-26T13:26:24;6.00;;;3.60;;
11598;SDS011;5855;48.840;9.188;2023-06-26T13:28:51;4.10;;;3.70;;
11598;SDS011;5855;48.840;9.188;2023-06-26T13:31:22;4.90;;;3.70;;
11598;SDS011;5855;48.840;9.188;2023-06-26T13:33:49;6.85;;;3.20;;
11598;SDS011;5855;48.840;9.188;2023-06-26T13:36:16;6.25;;;3.95;;
11598;SDS011;5855;48.840;9.188;2023-06-26T13:38:43;7.00;;;3.90;;
11598;SDS011;5855;48.840;9.188;2023-06-26T13:41:10;3.90;;;3.53;;
11598;SDS011;5855;48.840;9.188;2023-06-26T13:43:37;5.50;;;3.60;;
11598;SDS011;5855;48.840;9.188;2023-06-26T13:46:04;4.80;;;3.38;;
11598;SDS011;5855;48.840;9.188;2023-06-26T13:48:32;3.95;;;3.58;;
11598;SDS011;5855;48.840;9.188;2023-06-26T13:50:59;6.53;;;3.33;;
11598;SDS011;5855;48.840;9.188;2023-06-26T13:53:26;6.43;;;3.50;;
11598;SDS011;5855;48.840;9.188;2023-06-26T13:55:53;4.28;;;3.30;;
11598;SDS011;5855;48.840;9.188;2023-06-26T13:58:20;4.70;;;3.53;;
11598;SDS011;5855;48.840;9.188;2023-06-26T14:00:47;4.53;;;2.97;;
11598;SDS011;5855;48.840;9.188;2023-06-26T14:03:17;3.60;;;3.15;;
11598;SDS011;5855;48.840;9.188;2023-06-26T14:05:45;6.40;;;3.20;;
11598;SDS011;5855;48.840;9.188;2023-06-26T14:08:12;5.97;;;3.13;;
11598;SDS011;5855;48.840;9.188;2023-06-26T14:10:39;3.53;;;2.80;;
11598;SDS011;5855;48.840;9.188;2023-06-26T14:13:06;6.68;;;3.00;;
11598;SDS011;5855;48.840;9.188;2023-06-26T14:15:36;4.53;;;2.75;;
11598;SDS011;5855;48.840;9.188;2023-06-26T14:18:08;5.13;;;2.60;;
11598;SDS011;5855;48.840;9.188;2023-06-26T14:20:35;6.25;;;2.90;;
11598;SDS011;5855;48.840;9.188;2023-06-26T14:23:03;3.30;;;2.42;;
11598;SDS011;5855;48.840;9.188;2023-06-26T14:25:30;3.00;;;2.70;;
11598;SDS011;5855;48.840;9.188;2023-06-26T14:27:58;3.30;;;2.58;;
11598;SDS011;5855;48.840;9.188;2023-06-26T14:30:25;6.80;;;2.45;;
11598;SDS011;5855;48.840;9.188;2023-06-26T14:32:52;4.07;;;2.80;;
11598;SDS011;5855;48.840;9.188;2023-06-26T14:35:21;4.13;;;2.58;;
11598;SDS011;5855;48.840;9.188;2023-06-26T14:37:48;3.45;;;2.47;;
11598;SDS011;5855;48.840;9.188;2023-06-26T14:40:17;4.65;;;2.60;;
11598;SDS011;5855;48.840;9.188;2023-06-26T14:42:43;2.55;;;2.35;;
11598;SDS011;5855;48.840;9.188;2023-06-26T14:45:11;5.18;;;2.80;;
11598;SDS011;5855;48.840;9.188;2023-06-26T14:47:38;4.57;;;2.70;;
11598;SDS011;5855;48.840;9.188;2023-06-26T14:50:05;3.45;;;2.60;;
11598;SDS011;5855;48.840;9.188;2023-06-26T14:52:33;3.80;;;2.78;;
11598;SDS011;5855;48.840;9.188;2023-06-26T14:55:00;7.38;;;2.58;;
11598;SDS011;5855;48.840;9.188;2023-06-26T14:57:29;6.85;;;3.17;;
11598;SDS011;5855;48.840;9.188;2023-06-26T14:59:56;8.95;;;3.10;;
11598;SDS011;5855;48.840;9.188;2023-06-26T15:02:23;4.75;;;2.85;;
11598;SDS011;5855;48.840;9.188;2023-06-26T15:04:50;5.72;;;2.80;;
11598;SDS011;5855;48.840;9.188;2023-06-26T15:07:16;3.20;;;2.90;;
11598;SDS011;5855;48.840;9.188;2023-06-26T15:09:43;7.05;;;2.85;;
11598;SDS011;5855;48.840;9.188;2023-06-26T15:12:10;3.60;;;3.00;;